Time;durP1;ratioP1;P1;durP2;ratioP2;P2;SDS_P1;SDS_P2;PMS_P1;PMS_P2;Temp;Humidity;BMP_temperature;BMP_pressure;BME280_temperature;BME280_humidity;BME280_pressure;Samples;Min_cycle;Max_cycle;Signal;HPM_P1;HPM_P2
2021/12/26 00:01:17;;;;;;;7.50;4.03;;;;;;;0.16;86.10;94840.35;1742023;82;21606;-61
2021/12/26 00:03:44;;;;;;;4.40;3.20;;;;;;;0.18;86.15;94841.24;1741954;82;21608;-61
2021/12/26 00:06:16;;;;;;;3.27;2.20;;;;;;;0.20;86.09;94852.48;1742065;82;21003;-62
2021/12/26 00:08:46;;;;;;;3.00;1.83;;;;;;;0.18;86.04;94857.67;1742185;82;21020;-61
2021/12/26 00:11:13;;;;;;;2.20;1.77;;;;;;;0.18;86.00;94856.81;1742246;82;20975;-61
2021/12/26 00:13:42;;;;;;;2.77;1.70;;;;;;;0.17;86.12;94853.75;1741804;82;21007;-61
2021/12/26 00:16:10;;;;;;;2.07;1.40;;;;;;;0.23;86.47;94849.94;1755187;82;21014;-62
2021/12/26 00:18:42;;;;;;;1.40;1.20;;;;;;;0.27;86.48;94844.33;1755003;81;21006;-61
2021/12/26 00:21:07;;;;;;;1.90;1.47;;;;;;;0.27;86.70;94841.30;1755254;81;21553;-61
2021/12/26 00:23:34;;;;;;;4.27;1.90;;;;;;;0.25;86.82;94852.52;1753950;81;21027;-61
2021/12/26 00:26:00;;;;;;;2.93;2.00;;;;;;;0.25;86.93;94854.69;1754153;82;20999;-61
2021/12/26 00:28:27;;;;;;;4.23;2.77;;;;;;;0.27;86.95;94859.90;1754041;82;21488;-61
2021/12/26 00:30:53;;;;;;;6.93;3.30;;;;;;;0.30;87.21;94856.89;1753951;82;20975;-61
2021/12/26 00:33:21;;;;;;;7.97;5.37;;;;;;;0.40;87.19;94861.73;1754002;82;21019;-61
2021/12/26 00:35:48;;;;;;;8.27;5.43;;;;;;;0.46;86.91;94872.63;1753964;82;20978;-60
2021/12/26 00:38:17;;;;;;;5.93;4.03;;;;;;;0.47;86.56;94863.97;1753594;82;21039;-61
2021/12/26 00:40:46;;;;;;;5.97;3.70;;;;;;;0.47;86.42;94873.05;1753972;82;21567;-61
2021/12/26 00:43:13;;;;;;;4.83;2.50;;;;;;;0.47;86.34;94881.70;1753920;82;20995;-61
2021/12/26 00:45:40;;;;;;;4.87;3.10;;;;;;;0.46;86.22;94883.00;1753742;82;21009;-61
2021/12/26 00:48:27;;;;;;;3.13;2.20;;;;;;;0.37;86.03;94885.07;1753562;82;21075;-61
2021/12/26 00:50:54;;;;;;;4.67;2.93;;;;;;;0.31;86.15;94883.30;1753782;82;21553;-61
2021/12/26 00:53:21;;;;;;;3.07;1.73;;;;;;;0.23;86.40;94894.44;1753919;82;21020;-61
2021/12/26 00:55:49;;;;;;;4.23;1.90;;;;;;;0.20;86.33;94891.39;1753890;82;20984;-61
2021/12/26 00:58:16;;;;;;;5.23;2.83;;;;;;;0.22;86.45;94897.47;1753925;82;20999;-61
2021/12/26 01:00:47;;;;;;;7.97;4.77;;;;;;;0.24;86.47;94901.39;1753886;82;21023;-61
2021/12/26 01:03:16;;;;;;;5.77;3.90;;;;;;;0.22;86.41;94901.36;1753824;82;21496;-61
2021/12/26 01:05:51;;;;;;;8.00;5.20;;;;;;;0.20;86.38;94903.06;1754006;82;21007;-61
2021/12/26 01:08:25;;;;;;;6.93;3.80;;;;;;;0.18;86.51;94890.10;1753927;82;21497;-61
2021/12/26 01:10:59;;;;;;;7.35;4.47;;;;;;;0.19;86.83;94886.64;1726423;82;21042;-61
2021/12/26 01:13:35;;;;;;;4.83;3.37;;;;;;;0.19;86.83;94886.64;1753514;82;21541;-61
2021/12/26 01:16:11;;;;;;;4.07;3.20;;;;;;;0.15;86.96;94893.07;1726120;82;21011;-61
2021/12/26 01:18:44;;;;;;;4.83;3.30;;;;;;;0.12;87.06;94883.53;1753800;82;21023;-61
2021/12/26 01:21:18;;;;;;;6.37;3.80;;;;;;;0.09;87.40;94887.41;1753898;82;21042;-60
2021/12/26 01:23:52;;;;;;;5.67;3.23;;;;;;;0.09;87.43;94890.43;1759846;81;21011;-61
2021/12/26 01:26:20;;;;;;;4.13;2.67;;;;;;;0.11;87.62;94892.63;1760877;81;21018;-61
2021/12/26 01:28:48;;;;;;;2.67;2.10;;;;;;;0.17;87.67;94892.66;1760849;81;21050;-61
2021/12/26 01:31:19;;;;;;;2.83;2.00;;;;;;;0.28;87.64;94892.77;1760992;81;21038;-61
2021/12/26 01:34:01;;;;;;;3.27;2.60;;;;;;;0.33;87.49;94885.48;1760793;81;21085;-61
2021/12/26 01:36:46;;;;;;;5.70;4.23;;;;;;;0.35;87.19;94884.18;1759030;81;21096;-61
2021/12/26 01:39:25;;;;;;;4.83;3.50;;;;;;;0.37;87.00;94885.94;1755680;81;21497;-61
2021/12/26 01:41:54;;;;;;;2.97;2.30;;;;;;;0.39;86.85;94887.26;1751535;81;21066;-61
2021/12/26 01:44:23;;;;;;;3.10;2.33;;;;;;;0.33;86.65;94882.89;1757358;81;21052;-61
2021/12/26 01:46:50;;;;;;;2.30;2.10;;;;;;;0.30;86.82;94878.08;1730824;81;21010;-61
2021/12/26 01:49:23;;;;;;;2.47;1.93;;;;;;;0.34;87.16;94871.64;1760260;81;21078;-61
2021/12/26 01:51:54;;;;;;;2.23;1.87;;;;;;;0.45;87.15;94870.43;1731082;81;21078;-61
2021/12/26 01:54:32;;;;;;;2.53;2.27;;;;;;;0.46;86.56;94868.30;1760934;81;21091;-61
2021/12/26 01:57:00;;;;;;;2.37;2.10;;;;;;;0.41;86.51;94870.84;1730980;81;21062;-61
2021/12/26 01:59:28;;;;;;;2.17;1.93;;;;;;;0.51;87.03;94867.05;1760895;81;20994;-61
2021/12/26 02:02:03;;;;;;;2.20;1.60;;;;;;;0.58;87.13;94867.50;1748562;81;21547;-61
2021/12/26 02:04:32;;;;;;;2.70;1.83;;;;;;;0.66;87.02;94863.70;1731575;81;21035;-61
2021/12/26 02:07:02;;;;;;;2.93;1.60;;;;;;;0.70;86.76;94860.25;1760526;81;21083;-61
2021/12/26 02:09:28;;;;;;;1.50;1.20;;;;;;;0.70;86.29;94853.33;1730948;81;21038;-61
2021/12/26 02:11:57;;;;;;;1.60;1.40;;;;;;;0.72;86.17;94852.91;1760829;81;21015;-61
2021/12/26 02:14:24;;;;;;;2.33;1.97;;;;;;;0.74;86.28;94852.50;1761173;81;20966;-60
2021/12/26 02:16:56;;;;;;;2.20;1.53;;;;;;;0.82;86.46;94855.14;1742491;81;21042;-61
2021/12/26 02:19:24;;;;;;;1.43;1.30;;;;;;;0.84;86.05;94854.73;1760797;81;21535;-61
2021/12/26 02:22:10;;;;;;;2.20;1.40;;;;;;;0.80;85.81;94852.52;1760617;81;21511;-61
2021/12/26 02:24:55;;;;;;;1.73;1.50;;;;;;;0.77;85.81;94847.32;1754309;81;21011;-61
2021/12/26 02:29:45;;;;;;;1.93;1.50;;;;;;;0.74;86.31;94846.44;1755294;82;21003;-61
2021/12/26 02:32:15;;;;;;;1.43;1.20;;;;;;;0.82;86.61;94852.55;1755027;81;21061;-61
2021/12/26 02:34:41;;;;;;;1.63;1.10;;;;;;;0.85;86.42;94852.56;1755418;81;20987;-61
2021/12/26 02:37:08;;;;;;;1.80;1.43;;;;;;;0.86;86.26;94856.48;1742032;82;21004;-61
2021/12/26 02:39:35;;;;;;;2.00;1.77;;;;;;;0.83;86.17;94859.06;1742047;82;21591;-61
2021/12/26 02:42:04;;;;;;;3.67;2.20;;;;;;;0.79;86.31;94857.30;1742017;82;20973;-61
2021/12/26 02:44:31;;;;;;;2.60;2.40;;;;;;;0.79;86.46;94852.10;1755198;82;21010;-60
2021/12/26 02:46:57;;;;;;;5.10;2.50;;;;;;;0.76;86.42;94856.41;1755333;81;21540;-61
2021/12/26 02:49:25;;;;;;;2.10;1.90;;;;;;;0.76;86.70;94853.82;1755447;81;21332;-61
2021/12/26 02:51:54;;;;;;;2.93;2.30;;;;;;;0.73;86.97;94858.97;1755490;81;21003;-61
2021/12/26 02:54:26;;;;;;;2.77;2.50;;;;;;;0.74;87.10;94868.52;1742101;82;21011;-60
2021/12/26 02:56:55;;;;;;;3.03;2.23;;;;;;;0.81;87.22;94862.52;1723383;82;20972;-61
2021/12/26 02:59:21;;;;;;;3.07;2.27;;;;;;;0.79;86.93;94865.08;1742098;82;21060;-61
2021/12/26 03:01:48;;;;;;;6.40;4.47;;;;;;;0.72;86.49;94861.14;1742308;82;20963;-61
2021/12/26 03:04:16;;;;;;;4.03;3.20;;;;;;;0.66;86.89;94856.77;1741564;82;21015;-61
2021/12/26 03:06:56;;;;;;;5.60;3.23;;;;;;;0.64;87.43;94862.38;1742188;82;21043;-60
2021/12/26 03:09:14;;;;;;;3.10;2.80;;;;;;;0.64;87.63;94863.24;1740985;82;21016;-61
2021/12/26 03:11:44;;;;;;;3.83;3.00;;;;;;;0.68;87.84;94864.16;1742139;82;21489;-61
2021/12/26 03:14:09;;;;;;;3.70;3.03;;;;;;;0.70;87.93;94863.70;1742063;82;20980;-61
2021/12/26 03:16:35;;;;;;;4.53;2.97;;;;;;;0.71;87.96;94864.17;1755398;82;20975;-61
2021/12/26 03:19:02;;;;;;;3.53;2.93;;;;;;;0.76;87.86;94861.61;1755034;81;21007;-61
2021/12/26 03:21:30;;;;;;;4.40;2.93;;;;;;;0.83;87.92;94859.47;1755324;81;20963;-61
2021/12/26 03:23:57;;;;;;;4.30;3.10;;;;;;;0.84;87.82;94861.23;1754219;81;21003;-61
2021/12/26 03:26:24;;;;;;;5.93;3.60;;;;;;;0.93;87.91;94861.70;1753898;82;21023;-61
2021/12/26 03:28:51;;;;;;;5.53;3.63;;;;;;;1.05;88.16;94860.05;1753713;82;21003;-61
2021/12/26 03:31:17;;;;;;;6.37;3.67;;;;;;;1.16;87.73;94860.54;1753932;82;21009;-62
2021/12/26 03:33:44;;;;;;;5.40;3.30;;;;;;;1.20;87.47;94867.50;1753854;82;21003;-61
2021/12/26 03:36:11;;;;;;;5.00;3.50;;;;;;;1.23;86.93;94862.31;1753819;82;21512;-61
2021/12/26 03:38:38;;;;;;;5.47;3.37;;;;;;;1.22;86.84;94857.55;1753956;82;21074;-61
2021/12/26 03:41:14;;;;;;;5.50;3.57;;;;;;;1.27;86.76;94863.64;1753047;82;21023;-61
2021/12/26 03:43:42;;;;;;;5.60;3.43;;;;;;;1.19;86.24;94865.78;1754175;82;21032;-61
2021/12/26 03:46:09;;;;;;;5.17;3.30;;;;;;;1.08;86.32;94861.39;1753929;82;21517;-61
2021/12/26 03:48:37;;;;;;;5.17;3.57;;;;;;;1.01;86.28;94863.51;1726179;82;21011;-61
2021/12/26 03:51:05;;;;;;;3.90;3.07;;;;;;;0.97;86.78;94866.94;1754274;82;21014;-61
2021/12/26 03:53:32;;;;;;;3.97;3.00;;;;;;;0.96;86.99;94869.10;1753789;82;21027;-61
2021/12/26 03:56:01;;;;;;;4.37;3.10;;;;;;;0.99;87.08;94871.72;1753955;82;21051;-61
2021/12/26 03:58:28;;;;;;;5.23;3.13;;;;;;;1.07;87.23;94871.33;1753698;82;21504;-61
2021/12/26 04:00:55;;;;;;;5.00;3.20;;;;;;;1.05;86.88;94866.98;1753930;82;21496;-61
2021/12/26 04:03:23;;;;;;;4.63;3.33;;;;;;;1.01;86.97;94863.94;1753842;82;21019;-61
2021/12/26 04:05:58;;;;;;;4.47;3.33;;;;;;;1.02;86.82;94873.03;1754206;82;21070;-61
2021/12/26 04:08:26;;;;;;;5.40;3.63;;;;;;;1.03;87.00;94869.98;1754029;82;21023;-61
2021/12/26 04:10:53;;;;;;;5.30;3.67;;;;;;;1.05;86.95;94866.55;1753947;82;21022;-61
2021/12/26 04:13:20;;;;;;;5.33;4.07;;;;;;;1.07;86.98;94869.16;1753957;82;21438;-61
2021/12/26 04:15:47;;;;;;;6.13;4.43;;;;;;;1.02;86.74;94871.73;1753826;82;21007;-61
2021/12/26 04:18:14;;;;;;;6.23;4.33;;;;;;;1.03;86.91;94865.69;1753928;82;21007;-61
2021/12/26 04:20:41;;;;;;;5.10;4.07;;;;;;;1.07;87.12;94867.42;1754084;82;21022;-62
2021/12/26 04:23:08;;;;;;;4.60;3.70;;;;;;;1.12;87.13;94871.36;1756009;81;21054;-61
2021/12/26 04:25:35;;;;;;;5.77;4.40;;;;;;;1.10;86.74;94870.91;1760951;81;21049;-61
2021/12/26 04:28:02;;;;;;;6.47;3.73;;;;;;;1.08;86.84;94870.48;1761099;81;21014;-61
2021/12/26 04:30:29;;;;;;;7.30;4.77;;;;;;;1.07;86.64;94871.76;1760746;81;21058;-62
2021/12/26 04:32:56;;;;;;;7.37;4.73;;;;;;;1.04;86.56;94875.64;1760838;81;21488;-61
2021/12/26 04:35:24;;;;;;;6.43;4.60;;;;;;;1.01;86.44;94867.84;1761044;81;20963;-62
2021/12/26 04:37:54;;;;;;;5.07;3.63;;;;;;;1.01;86.49;94878.23;1761003;81;21014;-61
2021/12/26 04:40:21;;;;;;;8.53;4.67;;;;;;;0.95;86.23;94879.03;1760987;81;21015;-61
2021/12/26 04:43:02;;;;;;;5.37;3.37;;;;;;;0.85;86.42;94881.13;1758984;81;20963;-61
2021/12/26 04:45:40;;;;;;;5.13;3.37;;;;;;;0.78;86.59;94881.53;1759500;81;21548;-61
2021/12/26 04:48:17;;;;;;;5.60;4.30;;;;;;;0.69;87.13;94877.56;1740078;81;20975;-62
2021/12/26 04:50:45;;;;;;;7.67;4.77;;;;;;;0.73;87.35;94880.63;1760733;81;21050;-61
2021/12/26 04:53:11;;;;;;;5.60;4.37;;;;;;;0.83;87.60;94886.73;1761167;81;21047;-61
2021/12/26 04:55:38;;;;;;;7.03;4.83;;;;;;;0.90;87.54;94890.26;1730793;81;21062;-61
2021/12/26 04:58:05;;;;;;;6.40;4.33;;;;;;;0.85;87.34;94886.32;1760892;81;21508;-61
2021/12/26 05:00:33;;;;;;;5.70;4.07;;;;;;;0.85;87.50;94893.68;1760748;81;21014;-61
2021/12/26 05:03:03;;;;;;;6.63;4.57;;;;;;;0.82;87.45;94892.37;1761086;81;21026;-62
2021/12/26 05:05:31;;;;;;;6.60;4.77;;;;;;;0.79;87.44;94894.95;1760747;81;21122;-61
2021/12/26 05:07:57;;;;;;;6.50;5.03;;;;;;;0.87;87.59;94895.00;1760994;81;20990;-61
2021/12/26 05:10:27;;;;;;;6.70;5.00;;;;;;;0.95;87.69;94897.66;1760593;81;21625;-62
2021/12/26 05:12:55;;;;;;;6.77;4.47;;;;;;;0.93;87.23;94888.98;1760873;81;21003;-62
2021/12/26 05:15:22;;;;;;;4.97;3.33;;;;;;;0.91;87.36;94892.88;1760639;81;21134;-61
2021/12/26 05:17:52;;;;;;;4.93;3.70;;;;;;;0.93;87.09;94897.62;1760875;81;21073;-61
2021/12/26 05:20:20;;;;;;;5.50;3.90;;;;;;;0.92;86.90;94902.40;1760947;81;21617;-61
2021/12/26 05:22:53;;;;;;;5.33;3.93;;;;;;;1.00;87.39;94903.75;1760597;81;21010;-61
2021/12/26 05:25:21;;;;;;;4.30;3.27;;;;;;;1.00;86.83;94905.05;1755129;81;20987;-61
2021/12/26 05:27:51;;;;;;;3.67;3.00;;;;;;;0.92;86.56;94904.99;1755066;82;21684;-61
2021/12/26 05:30:21;;;;;;;3.00;2.50;;;;;;;0.85;86.79;94905.80;1755314;82;21063;-61
2021/12/26 05:32:50;;;;;;;3.80;2.93;;;;;;;0.86;87.25;94908.42;1754958;80;21038;-61
2021/12/26 05:35:19;;;;;;;3.27;2.50;;;;;;;0.89;87.06;94905.41;1741959;82;21015;-61
2021/12/26 05:37:47;;;;;;;4.03;2.50;;;;;;;0.86;87.11;94903.23;1741974;82;21548;-61
2021/12/26 05:40:15;;;;;;;3.30;2.30;;;;;;;0.80;87.11;94907.06;1755346;82;21019;-61
2021/12/26 05:42:43;;;;;;;3.57;2.50;;;;;;;0.88;87.61;94905.81;1742091;82;21019;-61
2021/12/26 05:45:13;;;;;;;2.43;2.10;;;;;;;0.97;87.65;94902.00;1755239;82;21010;-61
2021/12/26 05:47:41;;;;;;;7.37;3.60;;;;;;;1.06;87.77;94898.61;1753317;81;21560;-61
2021/12/26 05:50:13;;;;;;;36.00;13.93;;;;;;;1.11;87.49;94897.31;1755197;82;21523;-61
2021/12/26 05:52:40;;;;;;;40.23;15.93;;;;;;;1.11;87.28;94902.11;1741915;82;21007;-61
2021/12/26 05:55:10;;;;;;;25.93;11.97;;;;;;;1.17;87.42;94900.83;1741303;82;21011;-61
2021/12/26 05:57:38;;;;;;;26.53;12.73;;;;;;;1.27;87.65;94901.33;1741953;82;20998;-61
2021/12/26 06:00:11;;;;;;;52.63;20.77;;;;;;;1.31;87.33;94891.84;1755108;82;21007;-61
2021/12/26 06:02:40;;;;;;;102.50;34.30;;;;;;;1.42;87.47;94901.84;1754911;81;21486;-61
2021/12/26 06:05:08;;;;;;;36.50;15.63;;;;;;;1.41;86.82;94900.53;1755081;82;21003;-61
2021/12/26 06:07:36;;;;;;;40.17;18.97;;;;;;;1.33;86.15;94901.78;1755124;81;21849;-61
2021/12/26 06:10:08;;;;;;;33.23;16.30;;;;;;;1.21;85.94;94904.31;1755229;81;21504;-61
2021/12/26 06:12:35;;;;;;;28.33;13.77;;;;;;;1.14;86.00;94908.62;1742093;82;21497;-61
2021/12/26 06:15:04;;;;;;;24.87;13.20;;;;;;;1.07;85.94;94915.48;1741744;82;21011;-61
2021/12/26 06:17:31;;;;;;;28.77;15.10;;;;;;;1.06;86.52;94915.50;1742018;82;21034;-61
2021/12/26 06:20:16;;;;;;;26.97;13.80;;;;;;;1.07;86.75;94916.79;1755139;82;21050;-61
2021/12/26 06:22:46;;;;;;;11.60;6.53;;;;;;;1.09;86.88;94911.62;1753974;81;21540;-62
2021/12/26 06:25:16;;;;;;;4.87;3.37;;;;;;;1.04;86.81;94915.91;1755328;81;21077;-62
2021/12/26 06:27:50;;;;;;;3.80;2.67;;;;;;;1.00;86.87;94919.33;1745106;82;20971;-61
2021/12/26 06:30:34;;;;;;;2.63;2.10;;;;;;;0.91;87.15;94921.85;1755466;81;20972;-61
2021/12/26 06:33:02;;;;;;;3.40;2.13;;;;;;;0.91;87.20;94925.34;1718807;81;20975;-61
2021/12/26 06:35:50;;;;;;;2.87;2.10;;;;;;;0.93;87.27;94930.53;1741674;82;21481;-61
2021/12/26 06:38:37;;;;;;;3.93;2.77;;;;;;;0.91;87.33;94926.64;1755337;82;21073;-61
2021/12/26 06:41:25;;;;;;;3.77;2.60;;;;;;;0.93;87.51;94927.50;1742201;82;20976;-61
2021/12/26 06:44:10;;;;;;;11.20;7.63;;;;;;;0.98;87.65;94934.03;1755471;82;21069;-61
2021/12/26 06:46:47;;;;;;;5.67;3.40;;;;;;;1.05;87.81;94930.63;1754801;81;21015;-61
2021/12/26 06:49:25;;;;;;;4.83;3.60;;;;;;;1.10;87.71;94931.97;1753817;81;20999;-62
2021/12/26 06:51:52;;;;;;;6.40;3.87;;;;;;;1.14;87.62;94938.50;1755353;82;21002;-61
2021/12/26 06:54:18;;;;;;;6.30;4.53;;;;;;;1.17;87.52;94937.21;1741817;82;20972;-62
2021/12/26 06:56:45;;;;;;;12.17;8.33;;;;;;;1.11;87.07;94937.59;1741860;82;21055;-61
2021/12/26 06:59:12;;;;;;;7.13;5.30;;;;;;;1.09;87.03;94942.79;1742190;82;21047;-61
2021/12/26 07:01:39;;;;;;;24.50;17.27;;;;;;;1.12;86.97;94948.00;1742096;82;21532;-61
2021/12/26 07:04:06;;;;;;;9.90;6.20;;;;;;;1.07;86.79;94943.20;1741864;82;20972;-61
2021/12/26 07:06:33;;;;;;;6.83;4.43;;;;;;;1.11;87.28;94943.67;1742402;82;21505;-62
2021/12/26 07:09:02;;;;;;;4.17;3.30;;;;;;;1.25;87.59;94955.45;1741446;82;21083;-61
2021/12/26 07:11:29;;;;;;;4.17;2.70;;;;;;;1.27;87.19;94947.24;1741930;82;20968;-61
2021/12/26 07:13:56;;;;;;;2.80;2.50;;;;;;;1.24;86.79;94950.69;1742233;82;21480;-61
2021/12/26 07:16:25;;;;;;;4.47;3.10;;;;;;;1.23;86.91;94950.67;1742216;82;20992;-62
2021/12/26 07:18:52;;;;;;;3.43;3.00;;;;;;;1.27;87.07;94948.55;1741850;82;21042;-61
2021/12/26 07:21:20;;;;;;;7.53;5.90;;;;;;;1.32;87.08;94952.48;1742080;82;21039;-62
2021/12/26 07:23:58;;;;;;;4.33;3.07;;;;;;;1.32;86.96;94949.88;1737742;82;21506;-61
2021/12/26 07:26:25;;;;;;;3.57;2.63;;;;;;;1.35;86.73;94952.48;1730835;83;21008;-62
2021/12/26 07:28:52;;;;;;;3.60;2.63;;;;;;;1.38;86.77;94953.80;1730508;83;21107;-61
2021/12/26 07:31:21;;;;;;;6.83;4.03;;;;;;;1.36;86.58;94959.02;1729880;83;20992;-62
2021/12/26 07:33:49;;;;;;;7.37;4.87;;;;;;;1.46;86.95;94959.91;1730475;82;21016;-64
2021/12/26 07:36:16;;;;;;;5.63;3.80;;;;;;;1.57;87.00;94961.30;1715543;84;21105;-61
2021/12/26 07:38:45;;;;;;;6.07;3.87;;;;;;;1.65;86.77;94967.40;1683370;84;21866;-62
2021/12/26 07:41:11;;;;;;;4.37;3.00;;;;;;;1.69;86.18;94964.83;1730713;83;20976;-62
2021/12/26 07:43:38;;;;;;;6.70;3.70;;;;;;;1.74;86.01;94963.56;1715719;84;21029;-61
2021/12/26 07:46:24;;;;;;;4.57;2.87;;;;;;;1.76;86.03;94961.81;1715236;84;21009;-62
2021/12/26 07:48:50;;;;;;;6.00;2.87;;;;;;;1.73;85.75;94963.10;1715405;84;21049;-62
2021/12/26 07:51:36;;;;;;;4.03;2.90;;;;;;;1.66;85.41;94965.23;1715379;84;21053;-61
2021/12/26 07:54:23;;;;;;;4.90;2.23;;;;;;;1.64;85.66;94963.94;1644747;87;21083;-61
2021/12/26 07:57:08;;;;;;;4.07;2.50;;;;;;;1.58;85.39;94972.13;1632027;88;21052;-61
2021/12/26 07:59:54;;;;;;;3.37;2.50;;;;;;;1.55;85.73;94977.31;1691163;83;21100;-61
2021/12/26 08:02:28;;;;;;;3.90;2.83;;;;;;;1.57;86.00;94971.70;1722227;83;21042;-62
2021/12/26 08:04:57;;;;;;;3.00;2.20;;;;;;;1.50;85.81;94978.14;1699466;83;21035;-62
2021/12/26 08:07:28;;;;;;;3.03;2.23;;;;;;;1.46;85.72;94972.91;1729827;83;20981;-62
2021/12/26 08:09:54;;;;;;;3.43;2.20;;;;;;;1.46;85.98;94979.41;1730413;83;21405;-62
2021/12/26 08:12:21;;;;;;;3.63;2.73;;;;;;;1.49;86.17;94976.41;1730763;83;21004;-62
2021/12/26 08:14:47;;;;;;;4.07;2.77;;;;;;;1.42;85.87;94979.83;1730385;82;21514;-62
2021/12/26 08:17:14;;;;;;;19.27;9.30;;;;;;;1.36;85.96;94974.61;1730933;83;21023;-62
2021/12/26 08:19:41;;;;;;;9.37;6.33;;;;;;;1.32;86.17;94979.33;1730262;83;21565;-62
2021/12/26 08:22:08;;;;;;;14.93;9.30;;;;;;;1.30;86.08;94984.50;1730581;83;21040;-63
2021/12/26 08:24:34;;;;;;;31.87;16.67;;;;;;;1.25;86.51;94982.30;1730501;81;21087;-62
2021/12/26 08:27:01;;;;;;;16.90;9.80;;;;;;;1.34;86.78;94976.75;1730479;82;21027;-62
2021/12/26 08:29:28;;;;;;;23.10;12.43;;;;;;;1.41;86.68;94980.70;1730628;82;21504;-62
2021/12/26 08:31:58;;;;;;;10.30;6.93;;;;;;;1.40;86.33;94972.45;1730245;82;21000;-62
2021/12/26 08:34:25;;;;;;;7.97;6.20;;;;;;;1.43;86.25;94981.99;1730366;82;21039;-62
2021/12/26 08:36:59;;;;;;;8.00;5.97;;;;;;;1.42;86.12;94986.33;1730525;83;21043;-62
2021/12/26 08:39:27;;;;;;;8.10;6.00;;;;;;;1.41;86.36;94988.91;1730228;83;21534;-62
2021/12/26 08:41:53;;;;;;;8.00;6.27;;;;;;;1.46;86.48;94988.10;1730405;82;21020;-62
2021/12/26 08:44:20;;;;;;;12.83;8.10;;;;;;;1.52;86.41;94982.06;1730654;83;21477;-62
2021/12/26 08:46:51;;;;;;;12.63;8.37;;;;;;;1.54;86.36;94980.35;1730263;82;21044;-62
2021/12/26 08:49:20;;;;;;;15.23;10.77;;;;;;;1.67;86.90;94982.59;1730480;83;21080;-62
2021/12/26 08:51:47;;;;;;;15.60;9.50;;;;;;;1.79;86.58;94991.77;1730743;83;21031;-62
2021/12/26 08:54:14;;;;;;;11.00;7.57;;;;;;;1.87;86.65;94982.27;1730567;83;21459;-62
2021/12/26 08:56:41;;;;;;;12.23;8.50;;;;;;;1.89;86.04;94981.84;1730133;82;21036;-62
2021/12/26 08:59:09;;;;;;;12.37;9.03;;;;;;;1.88;85.86;94980.52;1730637;83;21517;-62
2021/12/26 09:01:36;;;;;;;13.57;9.53;;;;;;;1.94;85.99;94984.03;1730619;82;21031;-62
2021/12/26 09:04:04;;;;;;;12.83;8.83;;;;;;;1.95;85.75;94985.77;1730425;83;21000;-62
2021/12/26 09:06:31;;;;;;;13.70;8.73;;;;;;;1.97;85.81;94982.31;1730548;83;21032;-62
2021/12/26 09:08:58;;;;;;;14.40;9.23;;;;;;;1.96;85.51;94984.02;1730819;82;20984;-62
2021/12/26 09:11:24;;;;;;;14.87;8.90;;;;;;;1.83;85.36;94983.53;1730517;83;21485;-62
2021/12/26 09:13:51;;;;;;;15.87;11.23;;;;;;;1.80;85.48;94978.32;1730269;83;21521;-62
2021/12/26 09:16:17;;;;;;;18.67;10.80;;;;;;;1.75;85.67;94980.03;1730706;83;20953;-62
2021/12/26 09:18:44;;;;;;;14.67;10.17;;;;;;;1.73;85.74;94983.91;1730506;82;21526;-62
2021/12/26 09:21:11;;;;;;;15.17;9.30;;;;;;;1.68;85.69;94979.11;1730573;83;20996;-62
2021/12/26 09:23:38;;;;;;;13.10;9.17;;;;;;;1.67;85.94;94981.29;1730096;83;21569;-62
2021/12/26 09:26:04;;;;;;;17.77;11.77;;;;;;;1.66;86.00;94975.23;1743595;82;21512;-62
2021/12/26 09:28:35;;;;;;;15.80;10.83;;;;;;;1.70;86.42;94969.59;1745123;81;21002;-62
2021/12/26 09:30:59;;;;;;;21.80;14.10;;;;;;;1.78;86.76;94969.20;1744631;82;21007;-61
2021/12/26 09:33:26;;;;;;;11.70;8.17;;;;;;;1.86;86.60;94964.03;1745184;82;21492;-61
2021/12/26 09:35:52;;;;;;;9.27;6.33;;;;;;;1.95;86.60;94958.44;1745182;82;21007;-61
2021/12/26 09:38:18;;;;;;;12.00;8.03;;;;;;;2.01;86.05;94956.73;1744886;82;21039;-61
2021/12/26 09:40:45;;;;;;;12.10;8.87;;;;;;;2.01;85.69;94951.08;1745544;82;21019;-61
2021/12/26 09:43:12;;;;;;;12.70;8.93;;;;;;;2.01;85.75;94960.63;1744851;82;21019;-61
2021/12/26 09:45:39;;;;;;;11.17;8.50;;;;;;;2.01;85.90;94961.93;1745012;81;21489;-61
2021/12/26 09:48:07;;;;;;;9.03;5.77;;;;;;;2.02;86.16;94955.45;1745335;81;21094;-61
2021/12/26 09:50:33;;;;;;;9.57;6.30;;;;;;;2.10;86.34;94955.47;1745030;81;20975;-61
2021/12/26 09:53:00;;;;;;;7.27;5.70;;;;;;;2.13;86.16;94962.84;1745173;81;21026;-62
2021/12/26 09:55:29;;;;;;;13.37;10.77;;;;;;;2.14;85.92;94962.00;1745330;82;21540;-61
2021/12/26 09:57:56;;;;;;;7.17;4.63;;;;;;;2.08;85.59;94963.70;1745308;82;21039;-62
2021/12/26 10:00:28;;;;;;;26.83;17.83;;;;;;;2.13;86.01;94955.03;1745289;81;21003;-61
2021/12/26 10:03:25;;;;;;;6.67;4.53;;;;;;;2.25;86.29;94958.56;1745312;82;21012;-62
2021/12/26 10:06:14;;;;;;;10.13;7.33;;;;;;;2.37;86.37;94958.16;1745057;82;21533;-61
2021/12/26 10:09:01;;;;;;;8.30;5.50;;;;;;;2.44;86.15;94956.86;1745322;81;20979;-62
2021/12/26 10:11:32;;;;;;;8.40;6.37;;;;;;;2.46;85.44;94962.51;1745537;82;21030;-61
2021/12/26 10:14:05;;;;;;;10.67;8.13;;;;;;;2.51;85.69;94960.78;1745298;82;21062;-62
2021/12/26 10:16:43;;;;;;;10.32;8.15;;;;;;;2.56;85.72;94963.41;1745493;82;21036;-62
2021/12/26 10:19:11;;;;;;;10.13;7.07;;;;;;;2.56;85.53;94955.15;1745402;82;21071;-62
2021/12/26 10:21:45;;;;;;;9.27;6.50;;;;;;;2.62;85.80;94958.22;1745201;81;20963;-61
2021/12/26 10:24:17;;;;;;;9.37;6.60;;;;;;;2.70;85.87;94960.40;1745020;82;21034;-61
2021/12/26 10:26:52;;;;;;;8.93;6.20;;;;;;;2.73;85.63;94960.40;1717959;82;21078;-61
2021/12/26 10:29:32;;;;;;;10.53;7.50;;;;;;;2.75;85.00;94960.41;1745264;82;21505;-61
2021/12/26 10:32:06;;;;;;;10.57;7.37;;;;;;;2.69;84.91;94959.94;1745171;82;21497;-61
2021/12/26 10:34:50;;;;;;;10.67;8.10;;;;;;;2.67;84.85;94968.63;1745040;82;21012;-61
2021/12/26 10:37:24;;;;;;;12.00;8.63;;;;;;;2.66;84.95;94956.04;1745182;82;21011;-62
2021/12/26 10:39:55;;;;;;;16.37;11.70;;;;;;;2.66;84.74;94961.69;1745066;82;21058;-61
2021/12/26 10:42:28;;;;;;;15.83;10.83;;;;;;;2.64;84.80;94962.97;1745296;81;21071;-61
2021/12/26 10:45:02;;;;;;;56.90;33.70;;;;;;;2.63;84.89;94966.46;1745576;82;20975;-62
2021/12/26 10:47:32;;;;;;;78.77;39.27;;;;;;;2.63;84.92;94965.59;1745132;81;21770;-62
2021/12/26 10:50:07;;;;;;;53.97;30.83;;;;;;;2.64;85.03;94974.70;1745282;82;21039;-61
2021/12/26 10:52:41;;;;;;;22.70;15.33;;;;;;;2.64;84.84;94965.58;1744994;81;21067;-62
2021/12/26 10:55:15;;;;;;;23.77;15.67;;;;;;;2.58;84.83;94966.45;1743827;82;20995;-61
2021/12/26 10:57:49;;;;;;;24.73;15.97;;;;;;;2.53;84.38;94972.52;1745297;81;21055;-61
2021/12/26 11:00:23;;;;;;;22.30;14.93;;;;;;;2.44;84.68;94972.48;1745460;82;21015;-61
2021/12/26 11:03:10;;;;;;;21.67;14.33;;;;;;;2.44;85.14;94973.34;1745242;82;21019;-61
2021/12/26 11:05:43;;;;;;;23.00;14.80;;;;;;;2.41;85.35;94973.78;1743428;82;21564;-61
2021/12/26 11:08:28;;;;;;;26.63;17.33;;;;;;;2.49;85.89;94976.83;1745530;82;21060;-61
2021/12/26 11:10:57;;;;;;;22.67;14.33;;;;;;;2.57;85.71;94971.23;1745275;82;21059;-61
2021/12/26 11:13:32;;;;;;;17.90;11.67;;;;;;;2.56;85.27;94971.22;1745251;82;21070;-61
2021/12/26 11:16:05;;;;;;;21.40;13.37;;;;;;;2.47;85.05;94978.59;1745159;82;21016;-61
2021/12/26 11:18:35;;;;;;;15.20;9.70;;;;;;;2.44;85.38;94975.09;1745228;82;21008;-61
2021/12/26 11:21:06;;;;;;;14.03;8.67;;;;;;;2.44;85.62;94972.48;1744508;82;20999;-61
2021/12/26 11:23:38;;;;;;;12.97;8.17;;;;;;;2.43;85.60;94978.13;1745141;82;21062;-61
2021/12/26 11:26:17;;;;;;;11.85;8.18;;;;;;;2.45;85.84;94982.05;1745311;81;21015;-61
2021/12/26 11:28:51;;;;;;;11.57;7.33;;;;;;;2.44;85.59;94982.90;1718121;82;20976;-61
2021/12/26 11:31:25;;;;;;;11.23;7.73;;;;;;;2.38;85.20;94978.55;1745246;82;21007;-62
2021/12/26 11:33:59;;;;;;;7.93;4.70;;;;;;;2.31;85.70;94980.25;1745046;82;20976;-61
2021/12/26 11:36:29;;;;;;;2.67;2.40;;;;;;;2.23;85.87;94983.70;1745033;82;21027;-62
2021/12/26 11:38:59;;;;;;;2.53;1.87;;;;;;;2.13;86.30;94978.45;1740048;82;21008;-62
2021/12/26 11:42:08;;;;;;;2.33;1.73;;;;;;;2.07;86.63;94983.66;1745127;81;21505;-61
2021/12/26 11:45:18;;;;;;;2.72;1.87;;;;;;;2.11;86.69;94985.82;1655854;82;21019;-61
2021/12/26 11:48:26;;;;;;;1.93;1.67;;;;;;;2.02;86.76;94982.77;1713069;82;21016;-61
2021/12/26 11:51:53;;;;;;;1.93;1.73;;;;;;;2.06;86.94;94985.80;1744995;82;21016;-61
2021/12/26 11:54:38;;;;;;;2.47;1.80;;;;;;;2.03;86.74;94984.49;1742060;82;21528;-61
2021/12/26 11:57:49;;;;;;;1.60;1.40;;;;;;;2.01;86.68;94989.25;1744339;82;21003;-61
2021/12/26 12:00:29;;;;;;;2.07;1.80;;;;;;;1.94;86.77;94987.04;1745386;82;21082;-62